Main page
METAR-TAF:

METAR-TAF

Airports :

Lyon, France

Lyon–Bron Airport

latitude: 45-43N, longitude: 004-57E, elevation: 200 m

Current weather observation

The report was made 32 minutes ago, at 01:30 UTC
Wind 6 kt from the South
Temperature 20°C
Humidity 53%
Pressure 1017 hPa
Visibility 10 km or more
no clouds below 1500 m and no cumulonimbus

METAR: LFLY 290130Z AUTO 17006KT CAVOK 20/10 Q1017 NOSIG

Time: 04:02 (02:02 UTC)

Forecast

The report was made 3 hours and 2 minutes ago, at 23:00 UTC
Forecast valid from 29 at 00 UTC to 29 at 24 UTC
Wind 10 kt from the South
Visibility 10 km or more
no clouds below 1500 m and no cumulonimbus
Temporary
from 29 at 02 UTC to 29 at 06 UTC
Wind 5 kt from the South/Southeast
Temporary
from 29 at 12 UTC to 29 at 17 UTC
Wind 15 kt from the South with gusts up to 25 kt

TAF: LFLY 282300Z 2900/2924 18010KT CAVOK TEMPO 2902/2906 16005KT TEMPO 2912/2917 18015G25KT

Weather observations and forecasts of more than 4000 airports (METAR and TAF reports).

The available stations are represented by yellow and red dots on the map.

Hover mouse over dot to see the name of the station.

Then click to see weather observations and forecasts.

To change the map : click on the green buttons with a black cross to zoom in, on the green button with a dash to zoom out, or on the green arrows for adjacent maps.


METAR-TAF: